| time (UTC) | temp F | wind direction | speed knots | gust knots | rain 1hr in | rain 24hr in | rain mn in | humidity % | barometer mb |
| 20260902214143 | 40 | 246 | 8.7 | 18.2 | 0.00 | 0.00 | 0.00 | 88 | |
| 20260902213529 | 40 | 232 | 11.3 | 21.7 | 0.00 | 0.00 | 0.00 | 88 | |
| 20260902211144 | 40 | 246 | 8.7 | 16.5 | 0.00 | 0.00 | 0.00 | 88 | |
| 20260902210530 | 40 | 240 | 8.7 | 17.4 | 0.00 | 0.00 | 0.00 | 87 | |
| 20260902205530 | 40 | 243 | 7.8 | 17.4 | 0.00 | 0.00 | 0.00 | 88 | |
| 20260902204144 | 40 | 256 | 7.8 | 14.8 | 0.00 | 0.00 | 0.00 | 89 | |
| 20260902203529 | 40 | 265 | 5.2 | 13.0 | 0.00 | 0.00 | 0.00 | 90 | |
| 20260902202530 | 40 | 248 | 7.8 | 14.8 | 0.00 | 0.00 | 0.00 | 93 | |
| 20260902201143 | 40 | 241 | 6.1 | 15.6 | 0.00 | 0.00 | 0.00 | 92 | |
| 20260902200530 | 40 | 250 | 6.1 | 13.9 | 0.00 | 0.00 | 0.00 | 93 | |
| 20260902195530 | 40 | 254 | 5.2 | 13.0 | 0.00 | 0.00 | 0.00 | 94 | |
| 20260902194143 | 40 | 265 | 6.1 | 15.6 | 0.00 | 0.00 | 0.00 | 94 | |
| 20260902193530 | 40 | 280 | 7.0 | 16.5 | 0.00 | 0.00 | 0.00 | 92 | |
| 20260902192529 | 41 | 267 | 7.8 | 20.0 | 0.00 | 0.00 | 0.00 | 91 | |
| 20260902191143 | 41 | 262 | 7.8 | 17.4 | 0.00 | 0.00 | 0.00 | 92 | |
| 20260902190529 | 41 | 268 | 7.8 | 20.9 | 0.00 | 0.00 | 0.00 | 90 | |
| 20260902185530 | 42 | 259 | 7.0 | 19.1 | 0.00 | 0.00 | 0.00 | 88 | |
| 20260902184143 | 41 | 250 | 7.0 | 15.6 | 0.00 | 0.00 | 0.00 | 90 | |
| 20260902183530 | 42 | 257 | 6.1 | 18.2 | 0.00 | 0.00 | 0.00 | 88 | |
| 20260902182530 | 42 | 248 | 7.0 | 21.7 | 0.00 | 0.00 | 0.00 | 86 | |
| 20260902181143 | 42 | 265 | 7.0 | 20.0 | 0.00 | 0.00 | 0.00 | 88 | |
| 20260902180530 | 42 | 263 | 7.8 | 20.9 | 0.00 | 0.00 | 0.00 | 86 | |
| 20260902175530 | 42 | 256 | 6.1 | 15.6 | 0.00 | 0.00 | 0.00 | 86 | |
| 20260902174143 | 42 | 255 | 7.8 | 23.5 | 0.00 | 0.00 | 0.00 | 84 | |
| 20260902173529 | 42 | 258 | 5.2 | 15.6 | 0.00 | 0.00 | 0.00 | 82 | |
| 20260902172530 | 43 | 255 | 7.8 | 22.6 | 0.00 | 0.00 | 0.00 | 80 | |
| 20260902171143 | 43 | 249 | 7.8 | 21.7 | 0.00 | 0.00 | 0.00 | 80 | |
| 20260902170530 | 44 | 240 | 7.0 | 20.0 | 0.00 | 0.00 | 0.00 | 77 | |
| 20260902165530 | 44 | 238 | 7.8 | 20.0 | 0.00 | 0.00 | 0.00 | 77 | |
| 20260902164143 | 44 | 244 | 8.7 | 22.6 | 0.00 | 0.00 | 0.00 | 76 | |
| 20260902163530 | 44 | 248 | 7.8 | 20.0 | 0.00 | 0.00 | 0.00 | 74 | |
| 20260902162530 | 44 | 251 | 5.2 | 18.2 | 0.00 | 0.00 | 0.00 | 73 | |
| 20260902161143 | 44 | 270 | 7.8 | 23.5 | 0.00 | 0.00 | 0.00 | 72 | |
| 20260902160529 | 44 | 267 | 7.0 | 14.8 | 0.00 | 0.00 | 0.00 | 73 | |
| 20260902155530 | 46 | 252 | 7.0 | 21.7 | 0.00 | 0.00 | 0.00 | 72 | |
| 20260902154143 | 46 | 253 | 7.0 | 20.0 | 0.00 | 0.00 | 0.00 | 69 | |
| 20260902153530 | 46 | 240 | 9.6 | 21.7 | 0.00 | 0.00 | 0.00 | 68 | |
| 20260902152529 | 46 | 236 | 8.7 | 20.0 | 0.00 | 0.00 | 0.00 | 67 | |
| 20260902151143 | 45 | 233 | 7.8 | 20.0 | 0.00 | 0.00 | 0.00 | 67 | |
| 20260902150530 | 46 | 228 | 8.7 | 20.0 | 0.00 | 0.00 | 0.00 | 66 | |
| 20260902145530 | 48 | 231 | 7.0 | 18.2 | 0.00 | 0.00 | 0.00 | 62 | |
| 20260902144143 | 46 | 231 | 6.1 | 15.6 | 0.00 | 0.00 | 0.00 | 60 | |
| 20260902143529 | 47 | 223 | 6.1 | 19.1 | 0.00 | 0.00 | 0.00 | 59 | |
| 20260902142530 | 46 | 231 | 7.0 | 16.5 | 0.00 | 0.00 | 0.00 | 57 | |
| 20260902141143 | 47 | 233 | 5.2 | 14.8 | 0.00 | 0.00 | 0.00 | 53 | |
| 20260902140530 | 47 | 198 | 6.1 | 18.2 | 0.00 | 0.00 | 0.00 | 53 | |
| 20260902135530 | 47 | 206 | 6.1 | 18.2 | 0.00 | 0.00 | 0.00 | 53 | |
| 20260902134141 | 47 | 223 | 3.5 | 10.4 | 0.00 | 0.00 | 0.00 | 51 | |
| 20260902133530 | 48 | 197 | 6.1 | 15.6 | 0.00 | 0.00 | 0.00 | 52 | |
| 20260902132530 | 48 | 200 | 7.0 | 18.2 | 0.00 | 0.00 | 0.00 | 49 | |
| 20260902131143 | 46 | 225 | 2.6 | 11.3 | 0.00 | 0.00 | 0.00 | 49 | |
| 20260902130530 | 46 | 196 | 9.6 | 20.9 | 0.00 | 0.00 | 0.00 | 50 | |
| 20260902125530 | 46 | 215 | 5.2 | 17.4 | 0.00 | 0.00 | 0.00 | 46 | |
| 20260902124142 | 48 | 227 | 4.3 | 13.9 | 0.00 | 0.00 | 0.00 | 40 | |
| 20260902123530 | 46 | 214 | 4.3 | 12.2 | 0.00 | 0.00 | 0.00 | 38 | |
| 20260902122530 | 44 | 240 | 8.7 | 15.6 | 0.00 | 0.00 | 0.00 | 41 | |
| 20260902121143 | 44 | 238 | 7.8 | 15.6 | 0.00 | 0.00 | 0.00 | 42 | |
| 20260902120529 | 45 | 237 | 3.5 | 11.3 | 0.00 | 0.00 | 0.00 | 41 | |
| 20260902115529 | 44 | 243 | 7.0 | 14.8 | 0.00 | 0.00 | 0.00 | 44 | |
| 20260902114143 | 44 | 243 | 5.2 | 13.0 | 0.00 | 0.00 | 0.00 | 42 | |
| 20260902113530 | 45 | 234 | 4.3 | 16.5 | 0.00 | 0.00 | 0.00 | 43 | |
| 20260902112530 | 45 | 219 | 6.1 | 16.5 | 0.00 | 0.00 | 0.00 | 47 | |
| 20260902111143 | 46 | 225 | 4.3 | 13.0 | 0.00 | 0.00 | 0.00 | 52 | |
| 20260902110530 | 44 | 198 | 9.6 | 19.1 | 0.00 | 0.00 | 0.00 | 51 | |
| 20260902105529 | 44 | 195 | 8.7 | 18.2 | 0.00 | 0.00 | 0.00 | 50 | |
| 20260902104143 | 44 | 197 | 6.1 | 13.9 | 0.00 | 0.00 | 0.00 | 51 | |
| 20260902103530 | 43 | 191 | 7.8 | 17.4 | 0.00 | 0.00 | 0.00 | 52 | |
| 20260902102529 | 43 | 194 | 9.6 | 18.2 | 0.00 | 0.00 | 0.00 | 51 | |
| 20260902101143 | 42 | 199 | 10.4 | 16.5 | 0.00 | 0.00 | 0.00 | 53 | |
| 20260902100530 | 42 | 194 | 11.3 | 15.6 | 0.00 | 0.00 | 0.00 | 52 | |
| 20260902095530 | 42 | 213 | 5.2 | 12.2 | 0.00 | 0.00 | 0.00 | 49 | |
| 20260902094143 | 42 | 214 | 5.2 | 13.0 | 0.00 | 0.00 | 0.00 | 48 | |
| 20260902093530 | 43 | 222 | 6.1 | 16.5 | 0.00 | 0.00 | 0.00 | 46 | |
| 20260902092530 | 43 | 219 | 8.7 | 15.6 | 0.00 | 0.00 | 0.00 | 46 | |
| 20260902091142 | 42 | 221 | 9.6 | 20.9 | 0.00 | 0.00 | 0.00 | 44 | |
| 20260902090530 | 42 | 229 | 8.7 | 22.6 | 0.00 | 0.00 | 0.00 | 41 | |
| 20260902084142 | 42 | 209 | 7.8 | 13.9 | 0.00 | 0.00 | 0.00 | 45 | |
| 20260902083530 | 41 | 219 | 9.6 | 20.0 | 0.00 | 0.00 | 0.00 | 46 | |
| 20260902082531 | 41 | 208 | 10.4 | 19.1 | 0.00 | 0.00 | 0.00 | 44 | |
| 20260902081142 | 40 | 226 | 9.6 | 18.2 | 0.00 | 0.00 | 0.00 | 48 | |
| 20260902080529 | 40 | 225 | 10.4 | 22.6 | 0.00 | 0.00 | 0.00 | 46 | |
| 20260902074143 | 40 | 216 | 7.0 | 15.6 | 0.00 | 0.00 | 0.00 | 51 | |
| 20260902073529 | 40 | 209 | 7.8 | 17.4 | 0.00 | 0.00 | 0.00 | 51 | |
| 20260902072530 | 40 | 210 | 8.7 | 18.2 | 0.00 | 0.00 | 0.00 | 52 | |
| 20260902071343 | 40 | 212 | 9.6 | 17.4 | 0.00 | 0.00 | 0.00 | 51 | |
| 20260902070529 | 40 | 219 | 7.8 | 17.4 | 0.00 | 0.00 | 0.00 | 49 | |
| 20260902065529 | 40 | 214 | 7.8 | 15.6 | 0.00 | 0.00 | 0.00 | 52 | |
| 20260902064143 | 39 | 216 | 9.6 | 17.4 | 0.00 | 0.00 | 0.00 | 56 | |
| 20260902062530 | 39 | 220 | 12.2 | 23.5 | 0.00 | 0.00 | 0.00 | 57 | |
| 20260902061143 | 40 | 220 | 16.5 | 26.1 | 0.00 | 0.00 | 0.00 | 51 | |
| 20260902060530 | 40 | 222 | 16.5 | 25.2 | 0.00 | 0.00 | 0.00 | 50 | |
| 20260902055530 | 40 | 222 | 17.4 | 24.3 | 0.00 | 0.00 | 0.00 | 53 | |
| 20260902054143 | 40 | 222 | 17.4 | 21.7 | 0.00 | 0.00 | 0.00 | 53 | |
| 20260902053530 | 40 | 220 | 16.5 | 24.3 | 0.00 | 0.00 | 0.00 | 53 | |
| 20260902052529 | 40 | 219 | 15.6 | 23.5 | 0.00 | 0.00 | 0.00 | 54 | |
| 20260902051143 | 40 | 223 | 16.5 | 24.3 | 0.00 | 0.00 | 0.00 | 54 | |
| 20260902050529 | 40 | 214 | 17.4 | 23.5 | 0.00 | 0.00 | 0.00 | 59 | |
| 20260902045530 | 39 | 202 | 14.8 | 20.0 | 0.00 | 0.00 | 0.00 | 64 | |
| 20260902044143 | 39 | 208 | 15.6 | 20.0 | 0.00 | 0.00 | 0.00 | 63 | |
| 20260902043530 | 39 | 204 | 14.8 | 19.1 | 0.00 | 0.00 | 0.00 | 63 | |
| 20260902042530 | 39 | 202 | 14.8 | 18.2 | 0.00 | 0.00 | 0.00 | 65 | |
| 20260902041143 | 39 | 203 | 13.0 | 20.0 | 0.00 | 0.00 | 0.00 | 62 | |
| 20260902040529 | 39 | 201 | 11.3 | 18.2 | 0.00 | 0.00 | 0.00 | 63 | |
| 20260902035530 | 39 | 210 | 13.0 | 19.1 | 0.00 | 0.00 | 0.00 | 60 | |
| 20260902034530 | 39 | 212 | 13.0 | 20.9 | 0.00 | 0.00 | 0.00 | 59 | |
| 20260902033529 | 39 | 214 | 13.0 | 23.5 | 0.00 | 0.00 | 0.00 | 63 | |
| 20260902032529 | 39 | 215 | 12.2 | 20.9 | 0.00 | 0.00 | 0.00 | 65 | |
| 20260902031529 | 40 | 218 | 13.9 | 20.9 | 0.00 | 0.00 | 0.00 | 61 | |
| 20260902030530 | 40 | 221 | 13.9 | 20.9 | 0.00 | 0.00 | 0.00 | 68 | |
| 20260902025529 | 40 | 222 | 13.0 | 19.1 | 0.00 | 0.00 | 0.00 | 74 | |
| 20260902024530 | 40 | 221 | 13.0 | 17.4 | 0.00 | 0.00 | 0.00 | 79 | |
| 20260902023530 | 40 | 216 | 10.4 | 15.6 | 0.00 | 0.00 | 0.00 | 74 | |
| 20260902022529 | 40 | 219 | 11.3 | 17.4 | 0.00 | 0.00 | 0.00 | 76 | |
| 20260902021529 | 40 | 222 | 11.3 | 20.0 | 0.00 | 0.00 | 0.00 | 72 | |
| 20260902015530 | 40 | 214 | 11.3 | 15.6 | 0.00 | 0.00 | 0.00 | 76 | |
| 20260902014530 | 40 | 222 | 13.0 | 17.4 | 0.00 | 0.00 | 0.00 | 77 | |
| 20260902013529 | 41 | 224 | 13.0 | 18.2 | 0.00 | 0.00 | 0.00 | 74 | |
| 20260902012530 | 41 | 223 | 13.0 | 18.2 | 0.00 | 0.00 | 0.00 | 60 | |
| 20260902011529 | 41 | 221 | 10.4 | 15.6 | 0.00 | 0.00 | 0.00 | 78 | |
| 20260902010530 | 40 | 222 | 10.4 | 14.8 | 0.00 | 0.00 | 0.00 | 88 | |
| 20260902005530 | 41 | 225 | 10.4 | 15.6 | 0.00 | 0.00 | 0.00 | 86 | |
| 20260901221143 | 41 | 230 | 8.7 | 13.0 | 0.00 | 0.00 | 0.00 | 87 | |
| 20260901220530 | 41 | 234 | 9.6 | 13.0 | 0.00 | 0.00 | 0.00 | 86 | |
| 20260901215530 | 41 | 232 | 11.3 | 14.8 | 0.00 | 0.00 | 0.00 | 85 |